sensor_id;sensor_type;location;lat;lon;timestamp;temperature;humidity
21744;DHT22;11034;48.556;9.342;2022-11-25T00:01:19;3.70;99.90
21744;DHT22;11034;48.556;9.342;2022-11-25T00:03:50;3.80;99.90
21744;DHT22;11034;48.556;9.342;2022-11-25T00:06:21;4.00;99.90
21744;DHT22;11034;48.556;9.342;2022-11-25T00:08:52;4.00;99.90
21744;DHT22;11034;48.556;9.342;2022-11-25T00:11:21;4.00;99.90
21744;DHT22;11034;48.556;9.342;2022-11-25T00:13:50;4.00;99.90
21744;DHT22;11034;48.556;9.342;2022-11-25T00:16:20;4.00;99.90
21744;DHT22;11034;48.556;9.342;2022-11-25T00:18:50;4.10;99.90
21744;DHT22;11034;48.556;9.342;2022-11-25T00:21:20;4.10;99.90
21744;DHT22;11034;48.556;9.342;2022-11-25T00:23:53;4.10;99.90
21744;DHT22;11034;48.556;9.342;2022-11-25T00:26:22;4.10;99.90
21744;DHT22;11034;48.556;9.342;2022-11-25T00:28:52;4.00;99.90
21744;DHT22;11034;48.556;9.342;2022-11-25T00:31:21;4.00;99.90
21744;DHT22;11034;48.556;9.342;2022-11-25T00:33:50;4.10;99.90
21744;DHT22;11034;48.556;9.342;2022-11-25T00:36:20;4.30;99.90
21744;DHT22;11034;48.556;9.342;2022-11-25T00:38:52;4.30;99.90
21744;DHT22;11034;48.556;9.342;2022-11-25T00:41:20;4.30;99.90
21744;DHT22;11034;48.556;9.342;2022-11-25T00:44:11;4.20;99.90
21744;DHT22;11034;48.556;9.342;2022-11-25T00:46:57;4.10;99.90
21744;DHT22;11034;48.556;9.342;2022-11-25T00:49:25;4.30;99.90
21744;DHT22;11034;48.556;9.342;2022-11-25T00:51:54;4.40;99.90
21744;DHT22;11034;48.556;9.342;2022-11-25T00:54:22;4.50;99.90
21744;DHT22;11034;48.556;9.342;2022-11-25T00:56:50;4.50;99.90
21744;DHT22;11034;48.556;9.342;2022-11-25T00:59:20;4.50;99.90
21744;DHT22;11034;48.556;9.342;2022-11-25T01:01:48;4.50;99.90
21744;DHT22;11034;48.556;9.342;2022-11-25T01:04:16;4.60;99.90
21744;DHT22;11034;48.556;9.342;2022-11-25T01:06:44;4.70;99.90
21744;DHT22;11034;48.556;9.342;2022-11-25T01:09:12;4.80;99.90
21744;DHT22;11034;48.556;9.342;2022-11-25T01:11:40;4.90;99.90
21744;DHT22;11034;48.556;9.342;2022-11-25T01:14:08;5.00;99.90
21744;DHT22;11034;48.556;9.342;2022-11-25T01:16:38;5.10;99.90
21744;DHT22;11034;48.556;9.342;2022-11-25T01:19:06;5.20;99.90
21744;DHT22;11034;48.556;9.342;2022-11-25T01:21:34;5.30;99.90
21744;DHT22;11034;48.556;9.342;2022-11-25T01:24:04;5.40;99.90
21744;DHT22;11034;48.556;9.342;2022-11-25T01:26:33;5.50;99.90
21744;DHT22;11034;48.556;9.342;2022-11-25T01:29:04;5.60;99.90
21744;DHT22;11034;48.556;9.342;2022-11-25T01:31:35;5.60;99.90
21744;DHT22;11034;48.556;9.342;2022-11-25T01:34:06;5.50;99.90
21744;DHT22;11034;48.556;9.342;2022-11-25T01:36:34;5.50;99.90
21744;DHT22;11034;48.556;9.342;2022-11-25T01:39:03;5.40;99.90
21744;DHT22;11034;48.556;9.342;2022-11-25T01:41:32;5.40;99.90
21744;DHT22;11034;48.556;9.342;2022-11-25T01:44:08;5.40;99.90
21744;DHT22;11034;48.556;9.342;2022-11-25T01:46:53;5.40;99.90
21744;DHT22;11034;48.556;9.342;2022-11-25T01:49:30;5.50;99.90
21744;DHT22;11034;48.556;9.342;2022-11-25T01:52:04;5.60;99.90
21744;DHT22;11034;48.556;9.342;2022-11-25T01:54:39;5.60;99.90
21744;DHT22;11034;48.556;9.342;2022-11-25T01:57:13;5.70;99.90
21744;DHT22;11034;48.556;9.342;2022-11-25T01:59:45;5.80;99.90
21744;DHT22;11034;48.556;9.342;2022-11-25T02:02:17;5.80;99.90
21744;DHT22;11034;48.556;9.342;2022-11-25T02:04:47;5.80;99.90
21744;DHT22;11034;48.556;9.342;2022-11-25T02:07:19;5.80;99.90
21744;DHT22;11034;48.556;9.342;2022-11-25T02:09:50;5.70;99.90
21744;DHT22;11034;48.556;9.342;2022-11-25T02:12:19;5.60;99.90
21744;DHT22;11034;48.556;9.342;2022-11-25T02:14:48;5.50;99.90
21744;DHT22;11034;48.556;9.342;2022-11-25T02:17:17;5.50;99.90
21744;DHT22;11034;48.556;9.342;2022-11-25T02:19:55;5.40;99.90
21744;DHT22;11034;48.556;9.342;2022-11-25T02:22:30;5.50;99.90
21744;DHT22;11034;48.556;9.342;2022-11-25T02:25:08;5.60;99.90
21744;DHT22;11034;48.556;9.342;2022-11-25T02:27:36;5.50;99.90
21744;DHT22;11034;48.556;9.342;2022-11-25T02:30:06;5.50;99.90
21744;DHT22;11034;48.556;9.342;2022-11-25T02:32:34;5.50;99.90
21744;DHT22;11034;48.556;9.342;2022-11-25T02:35:22;5.40;99.90
21744;DHT22;11034;48.556;9.342;2022-11-25T02:37:51;5.30;99.90
21744;DHT22;11034;48.556;9.342;2022-11-25T02:40:23;5.20;99.90
21744;DHT22;11034;48.556;9.342;2022-11-25T02:42:52;5.20;99.90
21744;DHT22;11034;48.556;9.342;2022-11-25T02:45:30;5.10;99.90
21744;DHT22;11034;48.556;9.342;2022-11-25T02:48:00;5.00;99.90
21744;DHT22;11034;48.556;9.342;2022-11-25T02:50:28;4.90;99.90
21744;DHT22;11034;48.556;9.342;2022-11-25T02:52:56;4.90;99.90
21744;DHT22;11034;48.556;9.342;2022-11-25T02:55:25;4.90;99.90
21744;DHT22;11034;48.556;9.342;2022-11-25T02:57:53;5.00;99.90
21744;DHT22;11034;48.556;9.342;2022-11-25T03:00:22;4.70;99.90
21744;DHT22;11034;48.556;9.342;2022-11-25T03:02:51;4.30;99.90
21744;DHT22;11034;48.556;9.342;2022-11-25T03:05:20;3.90;99.90
21744;DHT22;11034;48.556;9.342;2022-11-25T03:07:48;3.60;99.90
21744;DHT22;11034;48.556;9.342;2022-11-25T03:10:16;3.40;99.90
21744;DHT22;11034;48.556;9.342;2022-11-25T03:12:46;3.20;99.90
21744;DHT22;11034;48.556;9.342;2022-11-25T03:15:14;2.90;99.90
21744;DHT22;11034;48.556;9.342;2022-11-25T03:17:42;2.70;99.90
21744;DHT22;11034;48.556;9.342;2022-11-25T03:20:11;2.80;99.90
21744;DHT22;11034;48.556;9.342;2022-11-25T03:22:40;2.80;99.90
21744;DHT22;11034;48.556;9.342;2022-11-25T03:25:10;2.80;99.90
21744;DHT22;11034;48.556;9.342;2022-11-25T03:27:39;2.80;99.90
21744;DHT22;11034;48.556;9.342;2022-11-25T03:30:11;2.90;99.90
21744;DHT22;11034;48.556;9.342;2022-11-25T03:32:39;3.00;99.90
21744;DHT22;11034;48.556;9.342;2022-11-25T03:35:08;2.90;99.90
21744;DHT22;11034;48.556;9.342;2022-11-25T03:37:37;2.70;99.90
21744;DHT22;11034;48.556;9.342;2022-11-25T03:40:07;2.60;99.90
21744;DHT22;11034;48.556;9.342;2022-11-25T03:42:35;2.60;99.90
21744;DHT22;11034;48.556;9.342;2022-11-25T03:45:04;2.50;99.90
21744;DHT22;11034;48.556;9.342;2022-11-25T03:47:36;2.40;99.90
21744;DHT22;11034;48.556;9.342;2022-11-25T03:50:05;2.40;99.90
21744;DHT22;11034;48.556;9.342;2022-11-25T03:52:34;2.40;99.90
21744;DHT22;11034;48.556;9.342;2022-11-25T03:55:02;2.30;99.90
21744;DHT22;11034;48.556;9.342;2022-11-25T03:57:30;2.20;99.90
21744;DHT22;11034;48.556;9.342;2022-11-25T03:59:58;2.30;99.90
21744;DHT22;11034;48.556;9.342;2022-11-25T04:02:27;2.40;99.90
21744;DHT22;11034;48.556;9.342;2022-11-25T04:04:56;2.50;99.90
21744;DHT22;11034;48.556;9.342;2022-11-25T04:07:24;2.50;99.90
21744;DHT22;11034;48.556;9.342;2022-11-25T04:09:52;2.60;99.90
21744;DHT22;11034;48.556;9.342;2022-11-25T04:12:20;2.60;99.90
21744;DHT22;11034;48.556;9.342;2022-11-25T04:15:06;2.50;99.90
21744;DHT22;11034;48.556;9.342;2022-11-25T04:17:35;2.60;99.90
21744;DHT22;11034;48.556;9.342;2022-11-25T04:20:05;2.60;99.90
21744;DHT22;11034;48.556;9.342;2022-11-25T04:22:36;2.60;99.90
21744;DHT22;11034;48.556;9.342;2022-11-25T04:25:05;2.70;99.90
21744;DHT22;11034;48.556;9.342;2022-11-25T04:27:35;2.70;99.90
21744;DHT22;11034;48.556;9.342;2022-11-25T04:30:03;2.80;99.90
21744;DHT22;11034;48.556;9.342;2022-11-25T04:32:34;2.90;99.90
21744;DHT22;11034;48.556;9.342;2022-11-25T04:35:05;2.90;99.90
21744;DHT22;11034;48.556;9.342;2022-11-25T04:37:33;3.30;99.90
21744;DHT22;11034;48.556;9.342;2022-11-25T04:40:00;3.90;99.90
21744;DHT22;11034;48.556;9.342;2022-11-25T04:42:31;4.10;99.90
21744;DHT22;11034;48.556;9.342;2022-11-25T04:45:01;4.50;99.90
21744;DHT22;11034;48.556;9.342;2022-11-25T04:47:51;4.80;99.90
21744;DHT22;11034;48.556;9.342;2022-11-25T04:50:22;4.90;99.90
21744;DHT22;11034;48.556;9.342;2022-11-25T04:52:50;4.80;99.90
21744;DHT22;11034;48.556;9.342;2022-11-25T04:55:19;4.90;99.90
21744;DHT22;11034;48.556;9.342;2022-11-25T04:57:47;4.90;99.90
21744;DHT22;11034;48.556;9.342;2022-11-25T05:00:16;4.90;99.90
21744;DHT22;11034;48.556;9.342;2022-11-25T05:02:43;4.80;99.90
21744;DHT22;11034;48.556;9.342;2022-11-25T05:05:13;4.90;99.90
21744;DHT22;11034;48.556;9.342;2022-11-25T05:07:43;4.90;99.90
21744;DHT22;11034;48.556;9.342;2022-11-25T05:10:11;4.90;99.90
21744;DHT22;11034;48.556;9.342;2022-11-25T05:12:39;4.70;99.90
21744;DHT22;11034;48.556;9.342;2022-11-25T05:15:08;4.60;99.90
21744;DHT22;11034;48.556;9.342;2022-11-25T05:17:37;4.50;99.90
21744;DHT22;11034;48.556;9.342;2022-11-25T05:20:06;4.40;99.90
21744;DHT22;11034;48.556;9.342;2022-11-25T05:22:34;4.50;99.90
21744;DHT22;11034;48.556;9.342;2022-11-25T05:25:04;4.70;99.90
21744;DHT22;11034;48.556;9.342;2022-11-25T05:27:32;4.80;99.90
21744;DHT22;11034;48.556;9.342;2022-11-25T05:30:00;4.90;99.90
21744;DHT22;11034;48.556;9.342;2022-11-25T05:32:28;4.90;99.90
21744;DHT22;11034;48.556;9.342;2022-11-25T05:34:56;4.90;99.90
21744;DHT22;11034;48.556;9.342;2022-11-25T05:37:24;4.90;99.90
21744;DHT22;11034;48.556;9.342;2022-11-25T05:39:52;5.00;99.90
21744;DHT22;11034;48.556;9.342;2022-11-25T05:42:22;5.00;99.90
21744;DHT22;11034;48.556;9.342;2022-11-25T05:44:50;5.10;99.90
21744;DHT22;11034;48.556;9.342;2022-11-25T05:47:18;5.10;99.90
21744;DHT22;11034;48.556;9.342;2022-11-25T05:49:46;5.10;99.90
21744;DHT22;11034;48.556;9.342;2022-11-25T05:52:14;5.10;99.90
21744;DHT22;11034;48.556;9.342;2022-11-25T05:54:42;5.10;99.90
21744;DHT22;11034;48.556;9.342;2022-11-25T05:57:10;5.20;99.90
21744;DHT22;11034;48.556;9.342;2022-11-25T05:59:40;5.20;99.90
21744;DHT22;11034;48.556;9.342;2022-11-25T06:02:08;5.30;99.90
21744;DHT22;11034;48.556;9.342;2022-11-25T06:04:36;5.40;99.90
21744;DHT22;11034;48.556;9.342;2022-11-25T06:07:04;5.50;99.90
21744;DHT22;11034;48.556;9.342;2022-11-25T06:09:33;5.50;99.90
21744;DHT22;11034;48.556;9.342;2022-11-25T06:12:01;5.60;99.90
21744;DHT22;11034;48.556;9.342;2022-11-25T06:14:29;5.60;99.90
21744;DHT22;11034;48.556;9.342;2022-11-25T06:16:58;5.70;99.90
21744;DHT22;11034;48.556;9.342;2022-11-25T06:19:27;5.80;99.90
21744;DHT22;11034;48.556;9.342;2022-11-25T06:21:55;5.70;99.90
21744;DHT22;11034;48.556;9.342;2022-11-25T06:24:23;5.80;99.90
21744;DHT22;11034;48.556;9.342;2022-11-25T06:26:51;5.70;99.90
21744;DHT22;11034;48.556;9.342;2022-11-25T06:29:19;5.60;99.90
21744;DHT22;11034;48.556;9.342;2022-11-25T06:31:48;5.40;99.90
21744;DHT22;11034;48.556;9.342;2022-11-25T06:34:17;5.10;99.90
21744;DHT22;11034;48.556;9.342;2022-11-25T06:36:47;4.70;99.90
21744;DHT22;11034;48.556;9.342;2022-11-25T06:39:15;4.60;99.90
21744;DHT22;11034;48.556;9.342;2022-11-25T06:41:43;4.70;99.90
21744;DHT22;11034;48.556;9.342;2022-11-25T06:44:13;4.90;99.90
21744;DHT22;11034;48.556;9.342;2022-11-25T06:46:41;5.00;99.90
21744;DHT22;11034;48.556;9.342;2022-11-25T06:49:09;5.20;99.90
21744;DHT22;11034;48.556;9.342;2022-11-25T06:51:38;5.30;99.90
21744;DHT22;11034;48.556;9.342;2022-11-25T06:54:06;5.40;99.90
21744;DHT22;11034;48.556;9.342;2022-11-25T06:56:36;5.30;99.90
21744;DHT22;11034;48.556;9.342;2022-11-25T06:59:04;5.20;99.90
21744;DHT22;11034;48.556;9.342;2022-11-25T07:01:32;5.00;99.90
21744;DHT22;11034;48.556;9.342;2022-11-25T07:04:02;4.90;99.90
21744;DHT22;11034;48.556;9.342;2022-11-25T07:06:31;4.90;99.90
21744;DHT22;11034;48.556;9.342;2022-11-25T07:09:01;4.80;99.90
21744;DHT22;11034;48.556;9.342;2022-11-25T07:11:30;4.90;99.90
21744;DHT22;11034;48.556;9.342;2022-11-25T07:14:02;5.00;99.90
21744;DHT22;11034;48.556;9.342;2022-11-25T07:16:31;5.10;99.90
21744;DHT22;11034;48.556;9.342;2022-11-25T07:19:02;5.30;99.90
21744;DHT22;11034;48.556;9.342;2022-11-25T07:21:31;5.40;99.90
21744;DHT22;11034;48.556;9.342;2022-11-25T07:24:05;5.50;99.90
21744;DHT22;11034;48.556;9.342;2022-11-25T07:26:35;5.50;99.90
21744;DHT22;11034;48.556;9.342;2022-11-25T07:29:06;5.60;99.90
21744;DHT22;11034;48.556;9.342;2022-11-25T07:31:54;5.70;99.90
21744;DHT22;11034;48.556;9.342;2022-11-25T07:34:22;5.70;99.90
21744;DHT22;11034;48.556;9.342;2022-11-25T07:36:50;5.60;99.90
21744;DHT22;11034;48.556;9.342;2022-11-25T07:39:21;5.50;99.90
21744;DHT22;11034;48.556;9.342;2022-11-25T07:41:50;5.60;99.90
21744;DHT22;11034;48.556;9.342;2022-11-25T07:44:19;5.80;99.90
21744;DHT22;11034;48.556;9.342;2022-11-25T07:46:48;5.90;99.90
21744;DHT22;11034;48.556;9.342;2022-11-25T07:49:19;6.10;99.90
21744;DHT22;11034;48.556;9.342;2022-11-25T07:51:49;6.20;99.90
21744;DHT22;11034;48.556;9.342;2022-11-25T07:54:21;6.30;99.90
21744;DHT22;11034;48.556;9.342;2022-11-25T07:56:49;6.50;99.90
21744;DHT22;11034;48.556;9.342;2022-11-25T07:59:19;6.60;99.90
21744;DHT22;11034;48.556;9.342;2022-11-25T08:01:48;6.80;99.90
21744;DHT22;11034;48.556;9.342;2022-11-25T08:04:16;6.90;99.90
21744;DHT22;11034;48.556;9.342;2022-11-25T08:06:49;6.90;99.90
21744;DHT22;11034;48.556;9.342;2022-11-25T08:09:21;6.60;99.90
21744;DHT22;11034;48.556;9.342;2022-11-25T08:11:50;6.40;99.90
21744;DHT22;11034;48.556;9.342;2022-11-25T08:14:18;6.20;99.90
21744;DHT22;11034;48.556;9.342;2022-11-25T08:16:48;6.10;99.90
21744;DHT22;11034;48.556;9.342;2022-11-25T08:19:16;6.00;99.90
21744;DHT22;11034;48.556;9.342;2022-11-25T08:21:44;6.00;99.90
21744;DHT22;11034;48.556;9.342;2022-11-25T08:24:15;5.90;99.90
21744;DHT22;11034;48.556;9.342;2022-11-25T08:26:45;5.80;99.90
21744;DHT22;11034;48.556;9.342;2022-11-25T08:29:15;5.80;99.90
21744;DHT22;11034;48.556;9.342;2022-11-25T08:31:44;5.70;99.90
21744;DHT22;11034;48.556;9.342;2022-11-25T08:34:17;5.60;99.90
21744;DHT22;11034;48.556;9.342;2022-11-25T08:36:45;5.60;99.90
21744;DHT22;11034;48.556;9.342;2022-11-25T08:39:15;5.60;99.90
21744;DHT22;11034;48.556;9.342;2022-11-25T08:42:05;5.50;99.90
21744;DHT22;11034;48.556;9.342;2022-11-25T08:44:33;5.50;99.90
21744;DHT22;11034;48.556;9.342;2022-11-25T08:47:01;5.50;99.90
21744;DHT22;11034;48.556;9.342;2022-11-25T08:49:29;5.70;99.90
21744;DHT22;11034;48.556;9.342;2022-11-25T08:52:06;6.00;99.90
21744;DHT22;11034;48.556;9.342;2022-11-25T08:54:34;6.50;99.90
21744;DHT22;11034;48.556;9.342;2022-11-25T08:57:03;6.90;99.90
21744;DHT22;11034;48.556;9.342;2022-11-25T08:59:31;7.40;99.90
21744;DHT22;11034;48.556;9.342;2022-11-25T09:01:59;7.70;99.90
21744;DHT22;11034;48.556;9.342;2022-11-25T09:04:28;8.00;99.90
21744;DHT22;11034;48.556;9.342;2022-11-25T09:06:56;7.60;99.90
21744;DHT22;11034;48.556;9.342;2022-11-25T09:09:24;7.40;99.90
21744;DHT22;11034;48.556;9.342;2022-11-25T09:11:52;7.20;99.90
21744;DHT22;11034;48.556;9.342;2022-11-25T09:14:22;7.00;99.90
21744;DHT22;11034;48.556;9.342;2022-11-25T09:16:50;6.80;99.90
21744;DHT22;11034;48.556;9.342;2022-11-25T09:19:19;6.60;99.90
21744;DHT22;11034;48.556;9.342;2022-11-25T09:21:47;6.50;99.90
21744;DHT22;11034;48.556;9.342;2022-11-25T09:24:15;6.50;99.90
21744;DHT22;11034;48.556;9.342;2022-11-25T09:26:43;6.30;99.90
21744;DHT22;11034;48.556;9.342;2022-11-25T09:29:11;6.30;99.90
21744;DHT22;11034;48.556;9.342;2022-11-25T09:31:41;6.40;99.90
21744;DHT22;11034;48.556;9.342;2022-11-25T09:34:09;6.50;99.90
21744;DHT22;11034;48.556;9.342;2022-11-25T09:36:37;6.60;99.90
21744;DHT22;11034;48.556;9.342;2022-11-25T09:39:06;6.70;99.90
21744;DHT22;11034;48.556;9.342;2022-11-25T09:41:51;6.80;99.90
21744;DHT22;11034;48.556;9.342;2022-11-25T09:44:48;7.10;99.90
21744;DHT22;11034;48.556;9.342;2022-11-25T09:47:46;7.50;99.90
21744;DHT22;11034;48.556;9.342;2022-11-25T09:50:32;8.10;99.90
21744;DHT22;11034;48.556;9.342;2022-11-25T09:53:08;8.50;99.90
21744;DHT22;11034;48.556;9.342;2022-11-25T09:55:43;8.90;99.90
21744;DHT22;11034;48.556;9.342;2022-11-25T09:58:22;9.20;99.90
21744;DHT22;11034;48.556;9.342;2022-11-25T10:00:53;9.40;99.90
21744;DHT22;11034;48.556;9.342;2022-11-25T10:03:31;9.60;99.90
21744;DHT22;11034;48.556;9.342;2022-11-25T10:06:04;9.80;99.90
21744;DHT22;11034;48.556;9.342;2022-11-25T10:08:36;9.80;99.90
21744;DHT22;11034;48.556;9.342;2022-11-25T10:11:13;9.90;99.90
21744;DHT22;11034;48.556;9.342;2022-11-25T10:13:48;10.10;99.90
21744;DHT22;11034;48.556;9.342;2022-11-25T10:16:29;10.10;99.90
21744;DHT22;11034;48.556;9.342;2022-11-25T10:19:04;10.10;99.90
21744;DHT22;11034;48.556;9.342;2022-11-25T10:21:39;10.10;99.90
21744;DHT22;11034;48.556;9.342;2022-11-25T10:24:12;10.10;99.90
21744;DHT22;11034;48.556;9.342;2022-11-25T10:26:42;10.30;99.90
21744;DHT22;11034;48.556;9.342;2022-11-25T10:29:26;10.30;99.90
21744;DHT22;11034;48.556;9.342;2022-11-25T10:32:02;10.20;99.90
21744;DHT22;11034;48.556;9.342;2022-11-25T10:34:41;10.20;99.90
21744;DHT22;11034;48.556;9.342;2022-11-25T10:37:12;10.30;99.90
21744;DHT22;11034;48.556;9.342;2022-11-25T10:39:41;10.30;99.90
21744;DHT22;11034;48.556;9.342;2022-11-25T10:42:14;10.40;99.90
21744;DHT22;11034;48.556;9.342;2022-11-25T10:44:42;10.40;99.90
21744;DHT22;11034;48.556;9.342;2022-11-25T10:47:27;10.40;99.90
21744;DHT22;11034;48.556;9.342;2022-11-25T10:52:54;10.50;99.90
21744;DHT22;11034;48.556;9.342;2022-11-25T10:55:25;10.50;99.90
21744;DHT22;11034;48.556;9.342;2022-11-25T10:57:58;10.50;99.90
21744;DHT22;11034;48.556;9.342;2022-11-25T11:00:29;10.60;99.90
21744;DHT22;11034;48.556;9.342;2022-11-25T11:03:00;10.70;99.90
21744;DHT22;11034;48.556;9.342;2022-11-25T11:05:45;10.80;99.90
21744;DHT22;11034;48.556;9.342;2022-11-25T11:08:19;10.70;99.90
21744;DHT22;11034;48.556;9.342;2022-11-25T11:11:09;10.60;99.90
21744;DHT22;11034;48.556;9.342;2022-11-25T11:13:41;10.40;99.90
21744;DHT22;11034;48.556;9.342;2022-11-25T11:16:22;10.40;99.90
21744;DHT22;11034;48.556;9.342;2022-11-25T11:18:53;10.20;99.90
21744;DHT22;11034;48.556;9.342;2022-11-25T11:21:28;10.10;99.90
21744;DHT22;11034;48.556;9.342;2022-11-25T11:23:57;9.90;99.90
21744;DHT22;11034;48.556;9.342;2022-11-25T11:26:28;9.70;99.90
21744;DHT22;11034;48.556;9.342;2022-11-25T11:29:02;9.50;99.90
21744;DHT22;11034;48.556;9.342;2022-11-25T11:31:36;9.30;99.90
21744;DHT22;11034;48.556;9.342;2022-11-25T11:37:17;9.10;99.90
21744;DHT22;11034;48.556;9.342;2022-11-25T11:40:17;9.00;99.90
21744;DHT22;11034;48.556;9.342;2022-11-25T11:42:56;8.80;99.90
21744;DHT22;11034;48.556;9.342;2022-11-25T11:45:40;8.70;99.90
21744;DHT22;11034;48.556;9.342;2022-11-25T11:48:15;8.70;99.90
21744;DHT22;11034;48.556;9.342;2022-11-25T11:50:47;8.80;99.90
21744;DHT22;11034;48.556;9.342;2022-11-25T11:53:30;8.70;99.90
21744;DHT22;11034;48.556;9.342;2022-11-25T11:56:01;8.60;99.90
21744;DHT22;11034;48.556;9.342;2022-11-25T11:59:00;8.60;99.90
21744;DHT22;11034;48.556;9.342;2022-11-25T12:01:46;8.50;99.90
21744;DHT22;11034;48.556;9.342;2022-11-25T12:04:21;8.50;99.90
21744;DHT22;11034;48.556;9.342;2022-11-25T12:07:02;8.60;99.90
21744;DHT22;11034;48.556;9.342;2022-11-25T12:09:42;8.50;99.90
21744;DHT22;11034;48.556;9.342;2022-11-25T12:12:15;8.50;99.90
21744;DHT22;11034;48.556;9.342;2022-11-25T12:14:49;8.50;99.90
21744;DHT22;11034;48.556;9.342;2022-11-25T12:17:22;8.60;99.90
21744;DHT22;11034;48.556;9.342;2022-11-25T12:19:54;8.50;99.90
21744;DHT22;11034;48.556;9.342;2022-11-25T12:22:33;8.40;99.90
21744;DHT22;11034;48.556;9.342;2022-11-25T12:25:09;8.40;99.90
21744;DHT22;11034;48.556;9.342;2022-11-25T12:27:41;8.30;99.90
21744;DHT22;11034;48.556;9.342;2022-11-25T12:30:15;8.30;99.90
21744;DHT22;11034;48.556;9.342;2022-11-25T12:33:00;8.30;99.90
21744;DHT22;11034;48.556;9.342;2022-11-25T12:35:42;8.40;99.90
21744;DHT22;11034;48.556;9.342;2022-11-25T12:38:20;8.40;99.90
21744;DHT22;11034;48.556;9.342;2022-11-25T12:40:56;8.50;99.90
21744;DHT22;11034;48.556;9.342;2022-11-25T12:43:33;8.60;99.90
21744;DHT22;11034;48.556;9.342;2022-11-25T12:46:21;8.60;99.90
21744;DHT22;11034;48.556;9.342;2022-11-25T12:48:52;8.70;99.90
21744;DHT22;11034;48.556;9.342;2022-11-25T12:51:38;8.80;99.90
21744;DHT22;11034;48.556;9.342;2022-11-25T12:54:27;8.80;99.90
21744;DHT22;11034;48.556;9.342;2022-11-25T12:57:23;8.70;99.90
21744;DHT22;11034;48.556;9.342;2022-11-25T13:00:03;8.60;99.90
21744;DHT22;11034;48.556;9.342;2022-11-25T13:03:05;8.50;99.90
21744;DHT22;11034;48.556;9.342;2022-11-25T13:05:58;8.50;99.90
21744;DHT22;11034;48.556;9.342;2022-11-25T13:08:48;8.50;99.90
21744;DHT22;11034;48.556;9.342;2022-11-25T13:11:46;8.50;99.90
21744;DHT22;11034;48.556;9.342;2022-11-25T13:14:24;8.50;99.90
21744;DHT22;11034;48.556;9.342;2022-11-25T13:16:55;8.50;99.90
21744;DHT22;11034;48.556;9.342;2022-11-25T13:19:27;8.50;99.90
21744;DHT22;11034;48.556;9.342;2022-11-25T13:21:57;8.50;99.90
21744;DHT22;11034;48.556;9.342;2022-11-25T13:24:32;8.40;99.90
21744;DHT22;11034;48.556;9.342;2022-11-25T13:27:01;8.40;99.90
21744;DHT22;11034;48.556;9.342;2022-11-25T13:30:00;8.40;99.90
21744;DHT22;11034;48.556;9.342;2022-11-25T13:32:40;8.40;99.90
21744;DHT22;11034;48.556;9.342;2022-11-25T13:35:30;8.40;99.90
21744;DHT22;11034;48.556;9.342;2022-11-25T13:37:58;8.40;99.90
21744;DHT22;11034;48.556;9.342;2022-11-25T13:40:35;8.40;99.90
21744;DHT22;11034;48.556;9.342;2022-11-25T13:43:04;8.40;99.90
21744;DHT22;11034;48.556;9.342;2022-11-25T13:45:37;8.40;99.90
21744;DHT22;11034;48.556;9.342;2022-11-25T13:48:11;8.40;99.90
21744;DHT22;11034;48.556;9.342;2022-11-25T13:50:39;8.40;99.90
21744;DHT22;11034;48.556;9.342;2022-11-25T13:53:31;8.40;99.90
21744;DHT22;11034;48.556;9.342;2022-11-25T13:56:13;8.40;99.90
21744;DHT22;11034;48.556;9.342;2022-11-25T13:59:18;8.30;99.90
21744;DHT22;11034;48.556;9.342;2022-11-25T14:01:53;8.40;99.90
21744;DHT22;11034;48.556;9.342;2022-11-25T14:04:34;8.40;99.90
21744;DHT22;11034;48.556;9.342;2022-11-25T14:07:20;8.40;99.90
21744;DHT22;11034;48.556;9.342;2022-11-25T14:10:02;8.40;99.90
21744;DHT22;11034;48.556;9.342;2022-11-25T14:12:46;8.30;99.90
21744;DHT22;11034;48.556;9.342;2022-11-25T14:15:43;8.30;99.90
21744;DHT22;11034;48.556;9.342;2022-11-25T14:18:36;8.30;99.90
21744;DHT22;11034;48.556;9.342;2022-11-25T14:21:49;8.20;99.90
21744;DHT22;11034;48.556;9.342;2022-11-25T14:24:29;8.20;99.90
21744;DHT22;11034;48.556;9.342;2022-11-25T14:27:00;8.20;99.90
21744;DHT22;11034;48.556;9.342;2022-11-25T14:29:35;8.20;99.90
21744;DHT22;11034;48.556;9.342;2022-11-25T14:32:09;8.20;99.90
21744;DHT22;11034;48.556;9.342;2022-11-25T14:34:42;8.20;99.90
21744;DHT22;11034;48.556;9.342;2022-11-25T14:37:15;8.20;99.90
21744;DHT22;11034;48.556;9.342;2022-11-25T14:39:49;8.20;99.90
21744;DHT22;11034;48.556;9.342;2022-11-25T14:42:22;8.10;99.90
21744;DHT22;11034;48.556;9.342;2022-11-25T14:44:52;8.10;99.90
21744;DHT22;11034;48.556;9.342;2022-11-25T14:47:22;8.00;99.90
21744;DHT22;11034;48.556;9.342;2022-11-25T14:49:53;8.00;99.90
21744;DHT22;11034;48.556;9.342;2022-11-25T14:52:42;8.00;99.90
21744;DHT22;11034;48.556;9.342;2022-11-25T14:55:11;8.00;99.90
21744;DHT22;11034;48.556;9.342;2022-11-25T14:57:43;8.00;99.90
21744;DHT22;11034;48.556;9.342;2022-11-25T15:00:14;7.90;99.90
21744;DHT22;11034;48.556;9.342;2022-11-25T15:02:52;7.90;99.90
21744;DHT22;11034;48.556;9.342;2022-11-25T15:05:23;7.90;99.90
21744;DHT22;11034;48.556;9.342;2022-11-25T15:07:57;7.90;99.90
21744;DHT22;11034;48.556;9.342;2022-11-25T15:10:31;7.80;99.90
21744;DHT22;11034;48.556;9.342;2022-11-25T15:13:01;7.70;99.90
21744;DHT22;11034;48.556;9.342;2022-11-25T15:15:33;7.60;99.90
21744;DHT22;11034;48.556;9.342;2022-11-25T15:18:04;7.50;99.90
21744;DHT22;11034;48.556;9.342;2022-11-25T15:20:33;7.40;99.90
21744;DHT22;11034;48.556;9.342;2022-11-25T15:23:01;7.40;99.90
21744;DHT22;11034;48.556;9.342;2022-11-25T15:25:33;7.40;99.90
21744;DHT22;11034;48.556;9.342;2022-11-25T15:28:00;7.40;99.90
21744;DHT22;11034;48.556;9.342;2022-11-25T15:30:29;7.40;99.90
21744;DHT22;11034;48.556;9.342;2022-11-25T15:32:57;7.40;99.90
21744;DHT22;11034;48.556;9.342;2022-11-25T15:35:26;7.60;99.90
21744;DHT22;11034;48.556;9.342;2022-11-25T15:37:55;7.60;99.90
21744;DHT22;11034;48.556;9.342;2022-11-25T15:40:32;7.60;99.90
21744;DHT22;11034;48.556;9.342;2022-11-25T15:43:04;7.60;99.90
21744;DHT22;11034;48.556;9.342;2022-11-25T15:45:36;7.60;99.90
21744;DHT22;11034;48.556;9.342;2022-11-25T15:48:14;7.50;99.90
21744;DHT22;11034;48.556;9.342;2022-11-25T15:50:46;7.40;99.90
21744;DHT22;11034;48.556;9.342;2022-11-25T15:53:22;7.40;99.90
21744;DHT22;11034;48.556;9.342;2022-11-25T15:55:59;7.30;99.90
21744;DHT22;11034;48.556;9.342;2022-11-25T15:58:28;7.30;99.90
21744;DHT22;11034;48.556;9.342;2022-11-25T16:01:03;7.20;99.90
21744;DHT22;11034;48.556;9.342;2022-11-25T16:03:31;7.20;99.90
21744;DHT22;11034;48.556;9.342;2022-11-25T16:06:01;7.10;99.90
21744;DHT22;11034;48.556;9.342;2022-11-25T16:08:34;7.10;99.90
21744;DHT22;11034;48.556;9.342;2022-11-25T16:11:11;7.00;99.90
21744;DHT22;11034;48.556;9.342;2022-11-25T16:13:41;7.10;99.90
21744;DHT22;11034;48.556;9.342;2022-11-25T16:16:13;7.20;99.90
21744;DHT22;11034;48.556;9.342;2022-11-25T16:18:51;7.20;99.90
21744;DHT22;11034;48.556;9.342;2022-11-25T16:21:22;7.30;99.90
21744;DHT22;11034;48.556;9.342;2022-11-25T16:23:55;7.30;99.90
21744;DHT22;11034;48.556;9.342;2022-11-25T16:26:26;7.40;99.90